createdAt,value
2018-12-19T00:00:48.258Z,90.30
2018-12-19T00:03:15.819Z,90.30
2018-12-19T00:05:43.347Z,90.20
2018-12-19T00:08:10.877Z,90.10
2018-12-19T00:10:38.425Z,90.00
2018-12-19T00:13:07.949Z,89.90
2018-12-19T00:15:35.478Z,89.70
2018-12-19T00:18:02.993Z,89.60
2018-12-19T00:20:30.539Z,89.50
2018-12-19T00:22:58.419Z,89.60
2018-12-19T00:25:25.937Z,89.50
2018-12-19T00:27:53.464Z,89.50
2018-12-19T00:30:21.054Z,89.40
2018-12-19T00:32:48.595Z,89.50
2018-12-19T00:35:16.114Z,89.60
2018-12-19T00:37:43.776Z,89.60
2018-12-19T00:40:11.326Z,89.80
2018-12-19T00:42:38.880Z,89.90
2018-12-19T00:45:06.801Z,90.00
2018-12-19T00:47:34.327Z,90.10
2018-12-19T00:50:01.852Z,90.10
2018-12-19T00:52:29.377Z,90.20
2018-12-19T00:54:56.915Z,90.20
2018-12-19T00:57:24.462Z,90.00
2018-12-19T00:59:52.010Z,90.20
2018-12-19T01:02:19.557Z,90.00
2018-12-19T01:04:48.201Z,90.00
2018-12-19T01:07:15.977Z,89.80
2018-12-19T01:09:43.712Z,89.70
2018-12-19T01:12:11.229Z,89.60
2018-12-19T01:14:38.786Z,89.20
2018-12-19T01:17:06.595Z,89.00
2018-12-19T01:19:34.105Z,88.70
2018-12-19T01:22:01.642Z,88.70
2018-12-19T01:24:29.176Z,88.70
2018-12-19T01:26:56.688Z,88.90
2018-12-19T01:29:24.233Z,89.30
2018-12-19T01:31:51.764Z,89.80
2018-12-19T01:34:19.378Z,90.00
2018-12-19T01:36:46.922Z,90.00
2018-12-19T01:39:14.441Z,89.80
2018-12-19T01:41:42.136Z,90.00
2018-12-19T01:44:10.013Z,90.00
2018-12-19T01:46:37.529Z,89.90
2018-12-19T01:49:05.096Z,89.80
2018-12-19T01:51:32.641Z,89.80
2018-12-19T01:54:00.172Z,89.50
2018-12-19T01:56:27.698Z,89.50
2018-12-19T01:58:55.241Z,89.10
2018-12-19T02:01:22.789Z,89.10
2018-12-19T02:03:50.334Z,88.90
2018-12-19T02:06:17.845Z,88.90
2018-12-19T02:08:45.381Z,88.80
2018-12-19T02:11:12.903Z,88.70
2018-12-19T02:13:40.431Z,88.60
2018-12-19T02:16:07.981Z,89.20
2018-12-19T02:18:35.490Z,88.80
2018-12-19T02:21:03.010Z,88.70
2018-12-19T02:23:30.654Z,88.60
2018-12-19T02:25:58.205Z,88.50
2018-12-19T02:28:26.018Z,88.40
2018-12-19T02:30:53.548Z,88.50
2018-12-19T02:33:21.088Z,88.30
2018-12-19T02:35:48.633Z,88.30
2018-12-19T02:38:16.160Z,88.90
2018-12-19T02:40:43.674Z,89.00
2018-12-19T02:43:11.200Z,89.30
2018-12-19T02:45:38.737Z,89.40
2018-12-19T02:48:06.288Z,89.30
2018-12-19T02:50:33.824Z,89.10
2018-12-19T02:53:01.359Z,88.90
2018-12-19T02:55:29.277Z,88.60
2018-12-19T02:57:56.804Z,88.40
2018-12-19T03:00:24.329Z,88.10
2018-12-19T03:02:52.162Z,87.80
2018-12-19T03:05:19.703Z,87.40
2018-12-19T03:07:47.244Z,87.00
2018-12-19T03:10:14.778Z,87.00
2018-12-19T03:12:42.313Z,87.10
2018-12-19T03:15:09.835Z,87.10
2018-12-19T03:17:37.373Z,87.50
2018-12-19T03:20:05.306Z,87.70
2018-12-19T03:22:32.845Z,87.80
2018-12-19T03:25:00.362Z,87.40
2018-12-19T03:27:27.885Z,87.90
2018-12-19T03:29:55.428Z,88.30
2018-12-19T03:32:22.950Z,88.60
2018-12-19T03:34:50.510Z,88.60
2018-12-19T03:37:18.050Z,88.60
2018-12-19T03:39:50.213Z,88.30
2018-12-19T03:42:15.123Z,88.40
2018-12-19T03:44:42.661Z,88.00
2018-12-19T03:47:10.434Z,87.80
2018-12-19T03:49:38.278Z,87.70
2018-12-19T03:52:05.819Z,87.40
2018-12-19T03:54:33.340Z,87.10
2018-12-19T03:57:01.300Z,87.10
2018-12-19T03:59:28.843Z,87.10
2018-12-19T04:01:56.395Z,87.10
2018-12-19T04:04:23.943Z,87.00
2018-12-19T04:06:51.626Z,86.70
2018-12-19T04:09:19.146Z,86.70
2018-12-19T04:11:46.695Z,86.70
2018-12-19T04:14:14.231Z,86.50
2018-12-19T04:16:41.741Z,86.40
2018-12-19T04:19:09.283Z,86.10
2018-12-19T04:21:36.809Z,86.10
2018-12-19T04:24:04.344Z,86.10
2018-12-19T04:26:31.874Z,86.00
2018-12-19T04:28:59.396Z,85.80
2018-12-19T04:31:26.940Z,85.70
2018-12-19T04:33:54.491Z,85.50
2018-12-19T04:36:22.010Z,85.50
2018-12-19T04:38:49.517Z,85.20
2018-12-19T04:41:17.048Z,84.90
2018-12-19T04:43:44.602Z,85.00
2018-12-19T04:46:12.129Z,84.70
2018-12-19T04:48:39.641Z,84.60
2018-12-19T04:51:07.171Z,84.40
2018-12-19T04:53:35.425Z,83.70
2018-12-19T04:56:02.955Z,84.10
2018-12-19T04:58:30.476Z,84.20
2018-12-19T05:00:57.997Z,83.90
2018-12-19T05:03:25.533Z,84.00
2018-12-19T05:05:53.057Z,83.90
2018-12-19T05:08:20.590Z,84.30
2018-12-19T05:10:48.126Z,84.30
2018-12-19T05:13:15.646Z,84.40
2018-12-19T05:15:43.162Z,84.40
2018-12-19T05:18:10.690Z,84.30
2018-12-19T05:20:38.236Z,84.00
2018-12-19T05:23:05.768Z,84.20
2018-12-19T05:25:33.546Z,84.10
2018-12-19T05:28:01.074Z,84.20
2018-12-19T05:30:28.591Z,84.40
2018-12-19T05:32:56.109Z,84.30
2018-12-19T05:35:23.749Z,83.50
2018-12-19T05:37:51.271Z,84.00
2018-12-19T05:40:19.230Z,84.10
2018-12-19T05:42:46.941Z,84.30
2018-12-19T05:45:14.516Z,84.10
2018-12-19T05:47:42.122Z,84.30
2018-12-19T05:50:09.959Z,84.00
2018-12-19T05:52:37.856Z,84.10
2018-12-19T05:55:05.581Z,83.90
2018-12-19T05:57:33.507Z,84.10
2018-12-19T06:00:01.098Z,83.50
2018-12-19T06:02:28.626Z,83.50
2018-12-19T06:04:56.178Z,83.70
2018-12-19T06:07:23.707Z,83.80
2018-12-19T06:09:51.232Z,83.90
2018-12-19T06:12:19.015Z,84.20
2018-12-19T06:14:46.533Z,84.20
2018-12-19T06:17:14.069Z,84.30
2018-12-19T06:19:41.613Z,84.20
2018-12-19T06:22:09.272Z,84.40
2018-12-19T06:24:36.819Z,84.30
2018-12-19T06:27:04.354Z,84.00
2018-12-19T06:29:31.861Z,84.10
2018-12-19T06:31:59.391Z,84.10
2018-12-19T06:34:26.944Z,84.10
2018-12-19T06:36:54.466Z,84.10
2018-12-19T06:39:22.121Z,84.00
2018-12-19T06:41:49.653Z,84.10
2018-12-19T06:44:17.187Z,84.00
2018-12-19T06:46:45.001Z,84.20
2018-12-19T06:49:12.538Z,84.30
2018-12-19T06:51:40.063Z,84.40
2018-12-19T06:54:07.923Z,84.30
2018-12-19T06:56:35.434Z,84.40
2018-12-19T06:59:02.996Z,84.50
2018-12-19T07:01:30.528Z,84.60
2018-12-19T07:03:58.061Z,84.30
2018-12-19T07:06:25.599Z,84.40
2018-12-19T07:08:53.548Z,84.20
2018-12-19T07:11:21.713Z,84.20
2018-12-19T07:13:49.240Z,84.40
2018-12-19T07:16:16.759Z,84.40
2018-12-19T07:18:44.274Z,84.40
2018-12-19T07:21:11.906Z,84.50
2018-12-19T07:23:40.011Z,84.50
2018-12-19T07:26:07.563Z,84.70
2018-12-19T07:28:35.091Z,84.80
2018-12-19T07:31:02.615Z,84.80
2018-12-19T07:33:30.151Z,84.90
2018-12-19T07:35:57.686Z,85.10
2018-12-19T07:38:25.213Z,85.00
2018-12-19T07:40:52.752Z,85.10
2018-12-19T07:43:20.266Z,85.20
2018-12-19T07:45:47.801Z,85.50
2018-12-19T07:48:15.665Z,85.50
2018-12-19T07:50:43.201Z,85.20
2018-12-19T07:53:10.946Z,85.10
2018-12-19T07:55:39.179Z,85.10
2018-12-19T07:58:06.693Z,85.20
2018-12-19T08:00:34.235Z,85.20
2018-12-19T08:03:01.794Z,85.40
2018-12-19T08:05:29.411Z,85.20
2018-12-19T08:07:56.950Z,85.10
2018-12-19T08:10:24.485Z,85.30
2018-12-19T08:12:52.012Z,85.30
2018-12-19T08:15:19.543Z,85.40
2018-12-19T08:17:47.095Z,85.40
2018-12-19T08:20:14.647Z,85.40
2018-12-19T08:22:42.169Z,85.30
2018-12-19T08:25:09.685Z,85.30
2018-12-19T08:27:37.217Z,85.10
2018-12-19T08:30:07.771Z,85.20
2018-12-19T08:32:35.300Z,85.20
2018-12-19T08:35:03.282Z,85.40
2018-12-19T08:37:30.825Z,85.50
2018-12-19T08:39:58.366Z,85.50
2018-12-19T08:42:25.888Z,85.70
2018-12-19T08:44:53.423Z,85.70
2018-12-19T08:47:20.980Z,85.70
2018-12-19T08:49:48.506Z,85.90
2018-12-19T08:52:16.039Z,86.30
2018-12-19T08:54:43.575Z,86.30
2018-12-19T08:57:11.088Z,86.30
2018-12-19T08:59:38.629Z,86.50
2018-12-19T09:02:06.139Z,86.50
2018-12-19T09:04:33.655Z,86.60
2018-12-19T09:07:01.239Z,86.60
2018-12-19T09:09:28.755Z,86.70
2018-12-19T09:11:56.278Z,86.80
2018-12-19T09:14:23.843Z,86.80
2018-12-19T09:16:51.357Z,86.70
2018-12-19T09:19:18.888Z,86.90
2018-12-19T09:21:46.429Z,86.80
2018-12-19T09:24:13.968Z,86.90
2018-12-19T09:26:41.490Z,86.90
2018-12-19T09:29:09.019Z,86.80
2018-12-19T09:31:36.556Z,87.00
2018-12-19T09:34:04.191Z,86.80
2018-12-19T09:36:31.714Z,86.80
2018-12-19T09:38:59.249Z,86.90
2018-12-19T09:41:26.781Z,86.90
2018-12-19T09:43:55.242Z,86.80
2018-12-19T09:46:23.090Z,86.80
2018-12-19T09:48:50.621Z,87.10
2018-12-19T09:51:18.160Z,87.20
2018-12-19T09:53:45.703Z,87.10
2018-12-19T09:56:13.243Z,87.10
2018-12-19T09:58:40.983Z,87.20
2018-12-19T10:01:08.576Z,87.10
2018-12-19T10:03:36.109Z,87.10
2018-12-19T10:06:03.917Z,87.00
2018-12-19T10:08:31.456Z,86.80
2018-12-19T10:10:58.986Z,86.90
2018-12-19T10:13:26.534Z,86.70
2018-12-19T10:15:54.098Z,87.00
2018-12-19T10:18:21.634Z,86.80
2018-12-19T10:20:49.175Z,86.90
2018-12-19T10:23:17.015Z,87.00
2018-12-19T10:25:46.603Z,87.00
2018-12-19T10:28:16.147Z,86.80
2018-12-19T10:30:47.516Z,87.10
2018-12-19T10:33:15.058Z,87.10
2018-12-19T10:35:42.596Z,87.20
2018-12-19T10:38:10.134Z,87.80
2018-12-19T10:40:37.929Z,87.80
2018-12-19T10:43:05.468Z,87.80
2018-12-19T10:45:33.396Z,87.80
2018-12-19T10:48:00.922Z,87.80
2018-12-19T10:50:28.446Z,87.80
2018-12-19T10:52:56.252Z,88.30
2018-12-19T10:55:23.773Z,88.90
2018-12-19T10:57:51.305Z,88.80
2018-12-19T11:00:24.361Z,88.80
2018-12-19T11:02:51.870Z,89.10
2018-12-19T11:05:19.399Z,88.70
2018-12-19T11:07:46.935Z,89.00
2018-12-19T11:10:14.587Z,89.10
2018-12-19T11:12:42.389Z,89.00
2018-12-19T11:15:10.274Z,89.00
2018-12-19T11:17:37.895Z,88.90
2018-12-19T11:20:08.443Z,89.10
2018-12-19T11:22:35.974Z,89.70
2018-12-19T11:25:04.415Z,89.60
2018-12-19T11:27:31.948Z,89.50
2018-12-19T11:29:59.596Z,90.00
2018-12-19T11:32:27.190Z,89.60
2018-12-19T11:34:54.753Z,89.80
2018-12-19T11:37:22.291Z,89.60
2018-12-19T11:39:49.842Z,89.70
2018-12-19T11:42:17.396Z,89.70
2018-12-19T11:44:45.005Z,90.10
2018-12-19T11:47:12.560Z,89.60
2018-12-19T11:49:40.100Z,89.50
2018-12-19T11:52:07.610Z,89.50
2018-12-19T11:54:35.150Z,89.50
2018-12-19T11:57:02.809Z,89.60
2018-12-19T11:59:30.353Z,89.80
2018-12-19T12:01:57.912Z,89.80
2018-12-19T12:04:25.453Z,90.30
2018-12-19T12:06:53.145Z,90.20
2018-12-19T12:09:20.703Z,90.20
2018-12-19T12:11:48.232Z,90.20
2018-12-19T12:14:15.754Z,90.20
2018-12-19T12:16:43.285Z,90.10
2018-12-19T12:19:10.813Z,90.10
2018-12-19T12:21:38.367Z,90.00
2018-12-19T12:24:05.895Z,90.00
2018-12-19T12:26:33.675Z,90.00
2018-12-19T12:29:02.552Z,90.00
2018-12-19T12:31:30.177Z,90.00
2018-12-19T12:33:57.729Z,90.00
2018-12-19T12:36:25.318Z,90.30
2018-12-19T12:38:52.853Z,90.20
2018-12-19T12:41:20.410Z,90.10
2018-12-19T12:43:47.935Z,90.20
2018-12-19T12:46:15.473Z,90.10
2018-12-19T12:48:43.015Z,90.00
2018-12-19T12:51:10.539Z,90.20
2018-12-19T12:53:38.076Z,90.00
2018-12-19T12:56:05.620Z,90.10
2018-12-19T12:58:33.158Z,90.10
2018-12-19T13:01:00.703Z,90.10
2018-12-19T13:03:28.255Z,90.10
2018-12-19T13:05:55.806Z,90.20
2018-12-19T13:08:23.349Z,90.00
2018-12-19T13:10:50.888Z,90.00
2018-12-19T13:13:18.431Z,90.00
2018-12-19T13:15:46.076Z,90.00
2018-12-19T13:18:14.734Z,90.00
2018-12-19T13:20:42.398Z,90.00
2018-12-19T13:23:09.971Z,90.00
2018-12-19T13:25:37.589Z,89.90
2018-12-19T13:28:05.133Z,89.90
2018-12-19T13:30:32.683Z,90.00
2018-12-19T13:33:00.211Z,90.00
2018-12-19T13:35:27.757Z,90.00
2018-12-19T13:37:55.282Z,90.10
2018-12-19T13:40:23.030Z,90.10
2018-12-19T13:42:50.576Z,90.10
2018-12-19T13:45:18.105Z,90.30
2018-12-19T13:47:45.663Z,90.30
2018-12-19T13:50:13.304Z,90.30
2018-12-19T13:52:40.844Z,90.20
2018-12-19T13:55:08.516Z,90.30
2018-12-19T13:57:36.055Z,90.30
2018-12-19T14:00:05.978Z,90.40
2018-12-19T14:02:33.506Z,90.40
2018-12-19T14:05:01.041Z,90.40
2018-12-19T14:07:28.586Z,90.40
2018-12-19T14:09:56.115Z,90.50
2018-12-19T14:12:23.658Z,90.50
2018-12-19T14:14:51.182Z,90.50
2018-12-19T14:17:18.827Z,90.50
2018-12-19T14:19:46.372Z,90.40
2018-12-19T14:22:13.895Z,90.60
2018-12-19T14:24:42.085Z,90.60
2018-12-19T14:27:09.790Z,90.50
2018-12-19T14:29:37.343Z,90.50
2018-12-19T14:32:04.879Z,90.50
2018-12-19T14:34:32.418Z,90.50
2018-12-19T14:36:59.963Z,90.50
2018-12-19T14:39:27.512Z,90.50
2018-12-19T14:41:55.050Z,90.50
2018-12-19T14:44:22.578Z,90.50
2018-12-19T14:46:50.185Z,90.50
2018-12-19T14:49:17.786Z,90.50
2018-12-19T14:51:45.319Z,90.50
2018-12-19T14:54:12.905Z,90.60
2018-12-19T14:56:40.492Z,90.50
2018-12-19T14:59:08.038Z,90.80
2018-12-19T15:01:35.593Z,90.80
2018-12-19T15:04:03.146Z,91.20
2018-12-19T15:06:30.807Z,91.00
2018-12-19T15:08:58.365Z,91.10
2018-12-19T15:11:27.039Z,91.20
2018-12-19T15:13:54.738Z,91.40
2018-12-19T15:16:23.151Z,91.40
2018-12-19T15:18:50.700Z,91.50
2018-12-19T15:21:18.218Z,91.50
2018-12-19T15:23:45.767Z,91.30
2018-12-19T15:26:13.313Z,91.50
2018-12-19T15:28:40.865Z,91.40
2018-12-19T15:31:08.410Z,91.30
2018-12-19T15:33:35.947Z,91.80
2018-12-19T15:36:03.795Z,91.90
2018-12-19T15:38:31.355Z,91.60
2018-12-19T15:40:58.901Z,91.50
2018-12-19T15:43:26.433Z,91.60
2018-12-19T15:45:53.957Z,91.50
2018-12-19T15:48:21.491Z,91.40
2018-12-19T15:50:49.028Z,91.30
2018-12-19T15:53:16.581Z,91.60
2018-12-19T15:55:44.223Z,91.50
2018-12-19T15:58:11.765Z,91.90
2018-12-19T16:00:39.296Z,91.60
2018-12-19T16:03:06.816Z,91.50
2018-12-19T16:05:34.361Z,92.00
2018-12-19T16:08:01.886Z,91.80
2018-12-19T16:10:29.418Z,91.70
2018-12-19T16:12:56.947Z,91.60
2018-12-19T16:15:24.457Z,91.80
2018-12-19T16:17:51.991Z,91.70
2018-12-19T16:20:19.543Z,91.60
2018-12-19T16:22:47.089Z,91.90
2018-12-19T16:25:14.931Z,92.00
2018-12-19T16:27:42.453Z,92.00
2018-12-19T16:30:10.096Z,92.40
2018-12-19T16:32:37.631Z,92.30
2018-12-19T16:35:05.582Z,92.50
2018-12-19T16:37:33.133Z,92.30
2018-12-19T16:40:00.667Z,92.40
2018-12-19T16:42:28.220Z,92.30
2018-12-19T16:44:55.768Z,92.30
2018-12-19T16:47:23.691Z,92.50
2018-12-19T16:49:51.255Z,92.40
2018-12-19T16:52:18.790Z,92.40
2018-12-19T16:54:46.320Z,92.30
2018-12-19T16:57:13.847Z,92.30
2018-12-19T16:59:41.390Z,92.50
2018-12-19T17:02:09.351Z,92.20
2018-12-19T17:04:36.878Z,92.30
2018-12-19T17:07:04.437Z,92.20
2018-12-19T17:09:32.014Z,92.20
2018-12-19T17:11:59.555Z,92.20
2018-12-19T17:14:27.087Z,92.10
2018-12-19T17:16:54.666Z,92.30
2018-12-19T17:19:22.219Z,92.30
2018-12-19T17:21:49.787Z,92.40
2018-12-19T17:24:17.611Z,92.30
2018-12-19T17:26:45.193Z,92.30
2018-12-19T17:29:12.752Z,92.40
2018-12-19T17:31:40.343Z,92.30
2018-12-19T17:34:08.684Z,92.60
2018-12-19T17:36:36.234Z,92.50
2018-12-19T17:39:05.939Z,92.40
2018-12-19T17:41:33.480Z,92.30
2018-12-19T17:44:01.998Z,92.20
2018-12-19T17:46:29.548Z,92.30
2018-12-19T17:48:57.120Z,92.30
2018-12-19T17:51:24.693Z,92.40
2018-12-19T17:53:52.253Z,92.00
2018-12-19T17:56:19.793Z,92.00
2018-12-19T18:01:39.829Z,92.10
2018-12-19T18:04:08.163Z,92.00
2018-12-19T18:06:35.833Z,92.00
2018-12-19T18:09:05.086Z,91.90
2018-12-19T18:11:33.500Z,91.90
2018-12-19T18:14:01.312Z,91.80
2018-12-19T18:16:28.886Z,91.70
2018-12-19T18:18:57.371Z,91.80
2018-12-19T18:21:24.984Z,91.70
2018-12-19T18:23:53.534Z,91.60
2018-12-19T18:26:21.109Z,91.70
2018-12-19T18:28:48.677Z,91.90
2018-12-19T18:31:16.241Z,91.80
2018-12-19T18:33:44.061Z,91.80
2018-12-19T18:36:11.634Z,91.80
2018-12-19T18:38:39.201Z,91.70
2018-12-19T18:41:06.780Z,92.00
2018-12-19T18:49:30.173Z,91.90
2018-12-19T18:51:57.829Z,91.90
2018-12-19T18:54:26.120Z,91.90
2018-12-19T18:56:54.539Z,91.80
2018-12-19T18:59:22.300Z,92.00
2018-12-19T19:01:49.980Z,91.70
2018-12-19T19:04:17.661Z,91.70
2018-12-19T19:06:45.323Z,91.80
2018-12-19T19:09:12.961Z,91.70
2018-12-19T19:11:43.678Z,91.50
2018-12-19T19:14:11.287Z,91.50
2018-12-19T19:16:38.877Z,91.50
2018-12-19T19:19:07.204Z,91.50
2018-12-19T19:21:34.780Z,91.60
2018-12-19T19:24:03.083Z,91.50
2018-12-19T19:26:30.716Z,91.50
2018-12-19T19:28:58.358Z,91.50
2018-12-19T19:31:25.951Z,91.50
2018-12-19T19:33:53.582Z,91.50
2018-12-19T19:36:24.053Z,91.50
2018-12-19T19:38:51.672Z,91.50
2018-12-19T19:41:22.167Z,91.50
2018-12-19T19:43:49.860Z,91.50
2018-12-19T19:46:17.523Z,91.50
2018-12-19T19:48:45.284Z,91.50
2018-12-19T19:51:16.916Z,91.50
2018-12-19T19:53:42.473Z,91.50
2018-12-19T19:56:10.120Z,91.50
2018-12-19T19:58:37.951Z,91.80
2018-12-19T20:01:06.443Z,91.60
2018-12-19T20:03:34.162Z,91.40
2018-12-19T20:06:01.774Z,91.50
2018-12-19T20:08:29.515Z,91.50
2018-12-19T20:10:57.449Z,91.50
2018-12-19T20:13:25.058Z,91.50
2018-12-19T20:15:52.718Z,91.70
2018-12-19T20:18:20.328Z,91.50
2018-12-19T20:20:47.910Z,91.50
2018-12-19T20:23:15.626Z,91.40
2018-12-19T20:25:43.235Z,91.40
2018-12-19T20:28:11.469Z,91.50
2018-12-19T20:30:39.184Z,91.40
2018-12-19T20:33:07.578Z,91.40
2018-12-19T20:35:35.219Z,91.40
2018-12-19T20:38:02.830Z,91.40
2018-12-19T20:40:31.168Z,91.50
2018-12-19T20:43:06.384Z,91.50
2018-12-19T20:45:29.239Z,91.40
2018-12-19T20:47:56.827Z,91.50
2018-12-19T20:50:24.453Z,91.50
2018-12-19T20:52:52.060Z,91.50
2018-12-19T20:55:19.685Z,91.40
2018-12-19T20:57:47.350Z,91.40
2018-12-19T21:00:15.087Z,91.30
2018-12-19T21:02:42.685Z,91.20
2018-12-19T21:05:10.229Z,91.10
2018-12-19T21:07:37.814Z,91.10
2018-12-19T21:10:06.557Z,91.10
2018-12-19T21:12:34.143Z,91.10
2018-12-19T21:15:01.860Z,91.00
2018-12-19T21:17:34.899Z,91.30
2018-12-19T21:20:02.502Z,91.00
2018-12-19T21:22:30.091Z,90.90
2018-12-19T21:24:57.748Z,90.80
2018-12-19T21:27:25.908Z,90.90
2018-12-19T21:29:53.508Z,90.80
2018-12-19T21:32:21.165Z,90.70
2018-12-19T21:34:48.727Z,90.80
2018-12-19T21:37:17.113Z,90.70
2018-12-19T21:39:44.752Z,90.70
2018-12-19T21:42:12.319Z,90.90
2018-12-19T21:44:39.906Z,90.90
2018-12-19T21:47:07.506Z,90.90
2018-12-19T21:49:35.143Z,90.80
2018-12-19T21:52:02.711Z,90.80
2018-12-19T21:54:30.257Z,90.70
2018-12-19T21:56:57.846Z,90.70
2018-12-19T21:59:25.504Z,90.70
2018-12-19T22:01:53.051Z,90.70
2018-12-19T22:04:20.633Z,90.70
2018-12-19T22:06:48.185Z,90.60
2018-12-19T22:09:15.833Z,90.70
2018-12-19T22:11:43.489Z,90.70
2018-12-19T22:14:11.186Z,90.60
2018-12-19T22:16:44.635Z,90.60
2018-12-19T22:19:12.240Z,90.60
2018-12-19T22:21:39.920Z,90.50
2018-12-19T22:24:07.617Z,90.50
2018-12-19T22:26:35.235Z,90.40
2018-12-19T22:29:02.819Z,90.40
2018-12-19T22:31:30.384Z,90.50
2018-12-19T22:33:57.976Z,90.50
2018-12-19T22:36:25.639Z,90.50
2018-12-19T22:38:53.286Z,90.60
2018-12-19T22:41:20.893Z,90.50
2018-12-19T22:43:48.478Z,90.60
2018-12-19T22:46:16.067Z,90.70
2018-12-19T22:48:43.801Z,90.70
2018-12-19T22:51:11.396Z,90.60
2018-12-19T22:53:38.944Z,90.60
2018-12-19T22:56:06.723Z,90.60
2018-12-19T22:58:34.380Z,90.50
2018-12-19T23:01:08.462Z,90.40
2018-12-19T23:03:42.691Z,90.30
2018-12-19T23:06:10.262Z,90.40
2018-12-19T23:08:37.911Z,90.40
2018-12-19T23:11:05.505Z,90.40
2018-12-19T23:13:33.071Z,90.40
2018-12-19T23:16:00.617Z,90.30
2018-12-19T23:18:28.404Z,90.20
2018-12-19T23:20:56.091Z,90.20
2018-12-19T23:23:23.639Z,90.10
2018-12-19T23:25:51.204Z,90.20
2018-12-19T23:28:18.770Z,90.20
2018-12-19T23:30:46.634Z,90.20
2018-12-19T23:33:14.199Z,90.20
2018-12-19T23:35:41.785Z,90.20
2018-12-19T23:38:09.723Z,90.20
2018-12-19T23:40:37.505Z,90.20
2018-12-19T23:43:05.053Z,90.20
2018-12-19T23:45:32.605Z,90.20
2018-12-19T23:48:00.278Z,90.10
2018-12-19T23:50:27.968Z,90.10
2018-12-19T23:52:55.685Z,90.10
2018-12-19T23:55:23.328Z,90.00
2018-12-19T23:57:50.968Z,90.00
